sensor_id;sensor_type;location;lat;lon;timestamp;pressure;altitude;pressure_sealevel;temperature;humidity
48926;BME280;39838;59.938;30.642;2022-07-17T00:00:44;100374.53;;;11.17;76.06
48926;BME280;39838;59.938;30.642;2022-07-17T00:03:12;100374.56;;;11.14;76.11
48926;BME280;39838;59.938;30.642;2022-07-17T00:05:42;100364.22;;;11.05;76.08
48926;BME280;39838;59.938;30.642;2022-07-17T00:08:10;100349.53;;;10.94;76.46
48926;BME280;39838;59.938;30.642;2022-07-17T00:10:41;100354.75;;;10.91;76.36
48926;BME280;39838;59.938;30.642;2022-07-17T00:13:09;100364.22;;;11.05;76.60
48926;BME280;39838;59.938;30.642;2022-07-17T00:15:37;100375.47;;;11.04;76.54
48926;BME280;39838;59.938;30.642;2022-07-17T00:18:04;100375.50;;;11.01;76.57
48926;BME280;39838;59.938;30.642;2022-07-17T00:20:32;100374.63;;;10.97;76.46
48926;BME280;39838;59.938;30.642;2022-07-17T00:23:00;100377.25;;;10.92;76.97
48926;BME280;39838;59.938;30.642;2022-07-17T00:25:27;100378.13;;;10.91;77.13
48926;BME280;39838;59.938;30.642;2022-07-17T00:27:55;100383.34;;;10.91;76.73
48926;BME280;39838;59.938;30.642;2022-07-17T00:30:22;100374.66;;;10.88;77.04
48926;BME280;39838;59.938;30.642;2022-07-17T00:32:49;100382.47;;;10.88;77.17
48926;BME280;39838;59.938;30.642;2022-07-17T00:35:16;100379.00;;;10.86;76.83
48926;BME280;39838;59.938;30.642;2022-07-17T00:37:45;100356.53;;;10.71;77.33
48926;BME280;39838;59.938;30.642;2022-07-17T00:40:17;100379.03;;;10.78;77.19
48926;BME280;39838;59.938;30.642;2022-07-17T00:42:45;100372.97;;;10.75;77.72
48926;BME280;39838;59.938;30.642;2022-07-17T00:45:12;100375.59;;;10.73;77.84
48926;BME280;39838;59.938;30.642;2022-07-17T00:47:50;100382.53;;;10.71;77.83
48926;BME280;39838;59.938;30.642;2022-07-17T00:50:19;100373.84;;;10.69;77.28
48926;BME280;39838;59.938;30.642;2022-07-17T00:52:47;100380.78;;;10.70;77.96
48926;BME280;39838;59.938;30.642;2022-07-17T00:55:16;100385.13;;;10.68;77.76
48926;BME280;39838;59.938;30.642;2022-07-17T00:57:46;100381.66;;;10.69;78.01
48926;BME280;39838;59.938;30.642;2022-07-17T01:00:14;100381.66;;;10.69;77.76
48926;BME280;39838;59.938;30.642;2022-07-17T01:02:45;100378.19;;;10.69;77.93
48926;BME280;39838;59.938;30.642;2022-07-17T01:05:13;100372.16;;;10.60;77.88
48926;BME280;39838;59.938;30.642;2022-07-17T01:07:41;100383.38;;;10.67;78.45
48926;BME280;39838;59.938;30.642;2022-07-17T01:10:09;100384.25;;;10.66;78.67
48926;BME280;39838;59.938;30.642;2022-07-17T01:12:38;100383.38;;;10.67;78.26
48926;BME280;39838;59.938;30.642;2022-07-17T01:15:07;100374.72;;;10.68;78.32
48926;BME280;39838;59.938;30.642;2022-07-17T01:17:36;100375.59;;;10.72;78.22
48926;BME280;39838;59.938;30.642;2022-07-17T01:20:04;100386.84;;;10.75;78.01
48926;BME280;39838;59.938;30.642;2022-07-17T01:22:40;100366.06;;;10.71;77.76
48926;BME280;39838;59.938;30.642;2022-07-17T01:25:08;100377.31;;;10.77;77.95
48926;BME280;39838;59.938;30.642;2022-07-17T01:27:35;100379.03;;;10.78;77.57
48926;BME280;39838;59.938;30.642;2022-07-17T01:30:03;100376.44;;;10.78;78.49
48926;BME280;39838;59.938;30.642;2022-07-17T01:32:31;100371.25;;;10.75;78.17
48926;BME280;39838;59.938;30.642;2022-07-17T01:37:13;100372.09;;;10.76;78.07
48926;BME280;39838;59.938;30.642;2022-07-17T01:39:40;100379.91;;;10.77;78.13
48926;BME280;39838;59.938;30.642;2022-07-17T01:42:19;100376.44;;;10.78;77.90
48926;BME280;39838;59.938;30.642;2022-07-17T01:44:47;100375.56;;;10.79;77.83
48926;BME280;39838;59.938;30.642;2022-07-17T01:47:14;100377.28;;;10.83;77.55
48926;BME280;39838;59.938;30.642;2022-07-17T01:49:43;100366.88;;;10.86;77.72
48926;BME280;39838;59.938;30.642;2022-07-17T01:52:12;100373.78;;;10.90;77.89
48926;BME280;39838;59.938;30.642;2022-07-17T01:54:40;100368.56;;;10.95;78.08
48926;BME280;39838;59.938;30.642;2022-07-17T01:57:08;100369.44;;;11.00;78.05
48926;BME280;39838;59.938;30.642;2022-07-17T01:59:36;100367.66;;;11.07;78.02
48926;BME280;39838;59.938;30.642;2022-07-17T02:02:04;100365.03;;;11.14;77.37
48926;BME280;39838;59.938;30.642;2022-07-17T02:04:31;100365.00;;;11.17;77.76
48926;BME280;39838;59.938;30.642;2022-07-17T02:06:58;100366.75;;;11.15;77.42
48926;BME280;39838;59.938;30.642;2022-07-17T02:09:27;100375.41;;;11.17;77.29
48926;BME280;39838;59.938;30.642;2022-07-17T02:11:54;100371.09;;;11.15;77.38
48926;BME280;39838;59.938;30.642;2022-07-17T02:14:21;100372.84;;;11.13;77.59
48926;BME280;39838;59.938;30.642;2022-07-17T02:16:48;100366.75;;;11.15;77.74
48926;BME280;39838;59.938;30.642;2022-07-17T02:19:16;100378.00;;;11.22;77.32
48926;BME280;39838;59.938;30.642;2022-07-17T02:21:43;100376.22;;;11.33;76.86
48926;BME280;39838;59.938;30.642;2022-07-17T02:24:10;100368.34;;;11.44;76.55
48926;BME280;39838;59.938;30.642;2022-07-17T02:26:39;100366.53;;;11.58;76.41
48926;BME280;39838;59.938;30.642;2022-07-17T02:29:06;100371.66;;;11.72;75.89
48926;BME280;39838;59.938;30.642;2022-07-17T02:31:33;100370.78;;;11.74;75.82
48926;BME280;39838;59.938;30.642;2022-07-17T02:34:00;100366.44;;;11.75;75.41
48926;BME280;39838;59.938;30.642;2022-07-17T02:36:27;100369.00;;;11.78;75.51
48926;BME280;39838;59.938;30.642;2022-07-17T02:38:55;100367.28;;;11.79;75.34
48926;BME280;39838;59.938;30.642;2022-07-17T02:41:22;100371.59;;;11.83;75.25
48926;BME280;39838;59.938;30.642;2022-07-17T02:43:50;100372.47;;;11.86;75.24
48926;BME280;39838;59.938;30.642;2022-07-17T02:46:17;100370.66;;;11.94;75.04
48926;BME280;39838;59.938;30.642;2022-07-17T02:48:44;100366.28;;;11.98;75.03
48926;BME280;39838;59.938;30.642;2022-07-17T02:51:11;100369.72;;;12.03;74.90
48926;BME280;39838;59.938;30.642;2022-07-17T02:53:38;100367.03;;;12.11;74.84
48926;BME280;39838;59.938;30.642;2022-07-17T02:56:06;100367.84;;;12.20;74.93
48926;BME280;39838;59.938;30.642;2022-07-17T02:58:33;100366.84;;;12.32;74.50
48926;BME280;39838;59.938;30.642;2022-07-17T03:01:01;100375.53;;;12.31;74.49
48926;BME280;39838;59.938;30.642;2022-07-17T03:03:28;100375.59;;;12.28;74.92
48926;BME280;39838;59.938;30.642;2022-07-17T03:05:56;100373.00;;;12.25;74.94
48926;BME280;39838;59.938;30.642;2022-07-17T03:08:23;100375.63;;;12.22;75.00
48926;BME280;39838;59.938;30.642;2022-07-17T03:10:50;100377.38;;;12.21;75.19
48926;BME280;39838;59.938;30.642;2022-07-17T03:13:17;100376.50;;;12.22;75.37
48926;BME280;39838;59.938;30.642;2022-07-17T03:15:44;100368.72;;;12.21;75.50
48926;BME280;39838;59.938;30.642;2022-07-17T03:18:12;100375.66;;;12.20;75.51
48926;BME280;39838;59.938;30.642;2022-07-17T03:20:39;100373.03;;;12.19;75.74
48926;BME280;39838;59.938;30.642;2022-07-17T03:23:06;100372.19;;;12.17;75.74
48926;BME280;39838;59.938;30.642;2022-07-17T03:25:34;100380.91;;;12.16;75.92
48926;BME280;39838;59.938;30.642;2022-07-17T03:28:01;100373.13;;;12.13;75.94
48926;BME280;39838;59.938;30.642;2022-07-17T03:30:28;100375.72;;;12.11;76.17
48926;BME280;39838;59.938;30.642;2022-07-17T03:32:55;100378.28;;;12.16;76.12
48926;BME280;39838;59.938;30.642;2022-07-17T03:35:23;100388.66;;;12.19;76.33
48926;BME280;39838;59.938;30.642;2022-07-17T03:37:50;100382.56;;;12.24;76.10
48926;BME280;39838;59.938;30.642;2022-07-17T03:40:17;100383.34;;;12.34;75.88
48926;BME280;39838;59.938;30.642;2022-07-17T03:42:44;100390.19;;;12.47;75.41
48926;BME280;39838;59.938;30.642;2022-07-17T03:45:12;100384.88;;;12.55;75.29
48926;BME280;39838;59.938;30.642;2022-07-17T03:47:39;100383.97;;;12.61;75.12
48926;BME280;39838;59.938;30.642;2022-07-17T03:50:06;100389.94;;;12.70;74.87
48926;BME280;39838;59.938;30.642;2022-07-17T03:52:35;100386.44;;;12.71;74.67
48926;BME280;39838;59.938;30.642;2022-07-17T03:55:02;100381.19;;;12.76;74.58
48926;BME280;39838;59.938;30.642;2022-07-17T03:57:30;100378.53;;;12.82;74.69
48926;BME280;39838;59.938;30.642;2022-07-17T03:59:57;100377.63;;;12.83;74.89
48926;BME280;39838;59.938;30.642;2022-07-17T04:02:24;100375.84;;;12.88;74.75
48926;BME280;39838;59.938;30.642;2022-07-17T04:04:51;100382.72;;;12.94;74.89
48926;BME280;39838;59.938;30.642;2022-07-17T04:07:18;100383.50;;;13.00;74.58
48926;BME280;39838;59.938;30.642;2022-07-17T04:09:57;100381.72;;;13.05;74.75
48926;BME280;39838;59.938;30.642;2022-07-17T04:12:25;100384.22;;;13.16;74.29
48926;BME280;39838;59.938;30.642;2022-07-17T04:14:52;100381.53;;;13.24;74.58
48926;BME280;39838;59.938;30.642;2022-07-17T04:17:19;100373.66;;;13.28;74.42
48926;BME280;39838;59.938;30.642;2022-07-17T04:19:46;100380.50;;;13.35;73.98
48926;BME280;39838;59.938;30.642;2022-07-17T04:22:14;100374.31;;;13.44;73.96
48926;BME280;39838;59.938;30.642;2022-07-17T04:24:41;100375.06;;;13.52;74.13
48926;BME280;39838;59.938;30.642;2022-07-17T04:27:10;100368.84;;;13.59;73.97
48926;BME280;39838;59.938;30.642;2022-07-17T04:29:37;100370.47;;;13.68;73.98
48926;BME280;39838;59.938;30.642;2022-07-17T04:32:05;100364.13;;;13.84;73.42
48926;BME280;39838;59.938;30.642;2022-07-17T04:34:32;100369.16;;;13.98;73.16
48926;BME280;39838;59.938;30.642;2022-07-17T04:37:00;100365.59;;;14.02;73.34
48926;BME280;39838;59.938;30.642;2022-07-17T04:39:27;100373.34;;;14.07;73.10
48926;BME280;39838;59.938;30.642;2022-07-17T04:41:54;100366.16;;;14.19;72.74
48926;BME280;39838;59.938;30.642;2022-07-17T04:44:23;100378.06;;;14.36;72.27
48926;BME280;39838;59.938;30.642;2022-07-17T04:46:50;100370.06;;;14.48;72.08
48926;BME280;39838;59.938;30.642;2022-07-17T04:49:17;100368.16;;;14.58;72.31
48926;BME280;39838;59.938;30.642;2022-07-17T04:51:44;100360.94;;;14.69;71.75
48926;BME280;39838;59.938;30.642;2022-07-17T04:54:11;100368.53;;;14.83;71.12
48926;BME280;39838;59.938;30.642;2022-07-17T04:56:39;100362.50;;;14.79;70.95
48926;BME280;39838;59.938;30.642;2022-07-17T04:59:06;100365.16;;;14.78;71.30
48926;BME280;39838;59.938;30.642;2022-07-17T05:01:34;100369.53;;;14.75;71.20
48926;BME280;39838;59.938;30.642;2022-07-17T05:04:01;100368.53;;;14.83;71.01
48926;BME280;39838;59.938;30.642;2022-07-17T05:06:29;100374.50;;;14.89;71.19
48926;BME280;39838;59.938;30.642;2022-07-17T05:08:57;100358.69;;;14.95;71.06
48926;BME280;39838;59.938;30.642;2022-07-17T05:11:24;100376.69;;;15.12;70.75
48926;BME280;39838;59.938;30.642;2022-07-17T05:13:51;100374.69;;;15.23;70.22
48926;BME280;39838;59.938;30.642;2022-07-17T05:16:18;100376.22;;;15.34;69.94
48926;BME280;39838;59.938;30.642;2022-07-17T05:18:46;100370.00;;;15.39;69.67
48926;BME280;39838;59.938;30.642;2022-07-17T05:21:13;100375.28;;;15.36;69.46
48926;BME280;39838;59.938;30.642;2022-07-17T05:23:41;100375.31;;;15.35;69.87
48926;BME280;39838;59.938;30.642;2022-07-17T05:26:08;100374.38;;;15.39;69.71
48926;BME280;39838;59.938;30.642;2022-07-17T05:28:35;100378.53;;;15.47;69.68
48926;BME280;39838;59.938;30.642;2022-07-17T05:31:02;100372.31;;;15.53;69.60
48926;BME280;39838;59.938;30.642;2022-07-17T05:33:30;100379.16;;;15.59;69.67
48926;BME280;39838;59.938;30.642;2022-07-17T05:35:58;100369.47;;;15.64;69.30
48926;BME280;39838;59.938;30.642;2022-07-17T05:38:25;100369.38;;;15.68;69.21
48926;BME280;39838;59.938;30.642;2022-07-17T05:40:53;100373.50;;;15.78;68.92
48926;BME280;39838;59.938;30.642;2022-07-17T05:43:20;100371.59;;;15.85;68.90
48926;BME280;39838;59.938;30.642;2022-07-17T05:45:47;100371.34;;;15.96;68.79
48926;BME280;39838;59.938;30.642;2022-07-17T05:48:14;100367.66;;;16.03;68.46
48926;BME280;39838;59.938;30.642;2022-07-17T05:50:41;100377.22;;;16.05;68.38
48926;BME280;39838;59.938;30.642;2022-07-17T05:53:10;100364.00;;;16.10;67.95
48926;BME280;39838;59.938;30.642;2022-07-17T05:55:37;100362.03;;;16.18;68.03
48926;BME280;39838;59.938;30.642;2022-07-17T05:58:05;100366.16;;;16.28;67.90
48926;BME280;39838;59.938;30.642;2022-07-17T06:00:32;100372.88;;;16.38;67.70
48926;BME280;39838;59.938;30.642;2022-07-17T06:02:59;100364.84;;;16.46;67.38
48926;BME280;39838;59.938;30.642;2022-07-17T06:05:26;100371.69;;;16.50;66.90
48926;BME280;39838;59.938;30.642;2022-07-17T06:07:53;100371.44;;;16.61;66.53
48926;BME280;39838;59.938;30.642;2022-07-17T06:10:22;100365.00;;;16.73;66.21
48926;BME280;39838;59.938;30.642;2022-07-17T06:12:50;100363.81;;;16.84;66.10
48926;BME280;39838;59.938;30.642;2022-07-17T06:15:18;100342.06;;;16.81;65.76
48926;BME280;39838;59.938;30.642;2022-07-17T06:17:45;100365.13;;;17.01;65.56
48926;BME280;39838;59.938;30.642;2022-07-17T06:20:13;100358.59;;;17.14;65.44
48926;BME280;39838;59.938;30.642;2022-07-17T06:22:41;100345.75;;;17.34;65.10
48926;BME280;39838;59.938;30.642;2022-07-17T06:25:08;100362.19;;;17.69;64.38
48926;BME280;39838;59.938;30.642;2022-07-17T06:27:38;100357.19;;;17.89;63.86
48926;BME280;39838;59.938;30.642;2022-07-17T06:30:07;100358.41;;;18.06;62.78
48926;BME280;39838;59.938;30.642;2022-07-17T06:32:34;100356.47;;;18.11;62.33
48926;BME280;39838;59.938;30.642;2022-07-17T06:35:01;100353.78;;;18.12;62.15
48926;BME280;39838;59.938;30.642;2022-07-17T06:37:28;100353.84;;;18.11;62.22
48926;BME280;39838;59.938;30.642;2022-07-17T06:39:55;100355.09;;;17.99;62.06
48926;BME280;39838;59.938;30.642;2022-07-17T06:42:23;100362.25;;;17.95;61.92
48926;BME280;39838;59.938;30.642;2022-07-17T06:44:51;100364.00;;;17.95;61.73
48926;BME280;39838;59.938;30.642;2022-07-17T06:47:18;100362.44;;;17.89;60.99
48926;BME280;39838;59.938;30.642;2022-07-17T06:49:45;100367.78;;;17.86;60.73
48926;BME280;39838;59.938;30.642;2022-07-17T06:52:12;100360.81;;;17.85;60.64
48926;BME280;39838;59.938;30.642;2022-07-17T06:54:39;100368.81;;;17.82;60.64
48926;BME280;39838;59.938;30.642;2022-07-17T06:57:06;100357.47;;;17.80;60.27
48926;BME280;39838;59.938;30.642;2022-07-17T07:00:38;100355.91;;;18.01;60.15
48926;BME280;39838;59.938;30.642;2022-07-17T07:03:05;100357.66;;;18.27;59.57
48926;BME280;39838;59.938;30.642;2022-07-17T07:05:33;100367.56;;;18.45;58.60
48926;BME280;39838;59.938;30.642;2022-07-17T07:08:00;100365.88;;;18.69;57.85
48926;BME280;39838;59.938;30.642;2022-07-17T07:10:27;100359.31;;;18.81;57.14
48926;BME280;39838;59.938;30.642;2022-07-17T07:12:54;100354.91;;;18.81;56.72
48926;BME280;39838;59.938;30.642;2022-07-17T07:15:22;100349.66;;;18.81;56.87
48926;BME280;39838;59.938;30.642;2022-07-17T07:17:51;100366.00;;;18.90;56.38
48926;BME280;39838;59.938;30.642;2022-07-17T07:20:18;100358.31;;;18.85;56.47
48926;BME280;39838;59.938;30.642;2022-07-17T07:22:46;100350.28;;;18.88;56.33
48926;BME280;39838;59.938;30.642;2022-07-17T07:25:13;100358.09;;;18.91;55.99
48926;BME280;39838;59.938;30.642;2022-07-17T07:27:40;100352.34;;;18.80;55.64
48926;BME280;39838;59.938;30.642;2022-07-17T07:30:08;100353.06;;;18.59;55.07
48926;BME280;39838;59.938;30.642;2022-07-17T07:32:36;100352.28;;;18.57;55.25
48926;BME280;39838;59.938;30.642;2022-07-17T07:35:06;100355.22;;;18.47;55.36
48926;BME280;39838;59.938;30.642;2022-07-17T07:37:33;100353.50;;;18.46;55.28
48926;BME280;39838;59.938;30.642;2022-07-17T07:40:00;100352.16;;;18.35;55.32
48926;BME280;39838;59.938;30.642;2022-07-17T07:42:28;100352.94;;;18.12;55.66
48926;BME280;39838;59.938;30.642;2022-07-17T07:44:55;100354.06;;;18.05;56.06
48926;BME280;39838;59.938;30.642;2022-07-17T07:47:23;100335.19;;;17.92;56.34
48926;BME280;39838;59.938;30.642;2022-07-17T07:49:50;100360.31;;;18.00;56.58
48926;BME280;39838;59.938;30.642;2022-07-17T07:52:18;100358.41;;;18.06;56.59
48926;BME280;39838;59.938;30.642;2022-07-17T07:54:45;100356.88;;;18.25;56.39
48926;BME280;39838;59.938;30.642;2022-07-17T07:57:12;100351.53;;;18.53;55.97
48926;BME280;39838;59.938;30.642;2022-07-17T07:59:39;100350.47;;;18.84;54.47
48926;BME280;39838;59.938;30.642;2022-07-17T08:02:07;100355.59;;;19.10;53.33
48926;BME280;39838;59.938;30.642;2022-07-17T08:04:34;100352.94;;;19.12;52.70
48926;BME280;39838;59.938;30.642;2022-07-17T08:07:01;100351.91;;;18.92;52.35
48926;BME280;39838;59.938;30.642;2022-07-17T08:09:29;100356.38;;;18.90;53.05
48926;BME280;39838;59.938;30.642;2022-07-17T08:11:56;100360.00;;;18.86;52.69
48926;BME280;39838;59.938;30.642;2022-07-17T08:14:23;100355.13;;;18.75;51.62
48926;BME280;39838;59.938;30.642;2022-07-17T08:16:50;100365.00;;;18.69;51.63
48926;BME280;39838;59.938;30.642;2022-07-17T08:19:18;100363.22;;;18.71;51.61
48926;BME280;39838;59.938;30.642;2022-07-17T08:21:45;100352.34;;;18.80;50.81
48926;BME280;39838;59.938;30.642;2022-07-17T08:24:12;100353.91;;;18.86;50.53
48926;BME280;39838;59.938;30.642;2022-07-17T08:26:40;100359.44;;;19.01;50.31
48926;BME280;39838;59.938;30.642;2022-07-17T08:29:07;100353.72;;;19.14;50.09
48926;BME280;39838;59.938;30.642;2022-07-17T08:31:34;100336.56;;;19.27;49.55
48926;BME280;39838;59.938;30.642;2022-07-17T08:34:01;100349.47;;;19.33;49.44
48926;BME280;39838;59.938;30.642;2022-07-17T08:36:28;100342.50;;;19.32;50.08
48926;BME280;39838;59.938;30.642;2022-07-17T08:38:56;100345.31;;;19.49;50.19
48926;BME280;39838;59.938;30.642;2022-07-17T08:41:23;100334.78;;;19.73;49.56
48926;BME280;39838;59.938;30.642;2022-07-17T08:43:52;100343.84;;;19.87;48.74
48926;BME280;39838;59.938;30.642;2022-07-17T08:46:23;100350.75;;;19.90;48.55
48926;BME280;39838;59.938;30.642;2022-07-17T08:48:56;100353.34;;;19.92;48.41
48926;BME280;39838;59.938;30.642;2022-07-17T08:51:25;100335.75;;;19.92;48.55
48926;BME280;39838;59.938;30.642;2022-07-17T08:53:52;100342.66;;;19.95;47.71
48926;BME280;39838;59.938;30.642;2022-07-17T08:56:20;100341.28;;;19.86;47.74
48926;BME280;39838;59.938;30.642;2022-07-17T08:58:47;100344.19;;;20.00;47.03
48926;BME280;39838;59.938;30.642;2022-07-17T09:01:17;100325.59;;;20.03;46.04
48926;BME280;39838;59.938;30.642;2022-07-17T09:03:55;100344.41;;;20.16;46.26
48926;BME280;39838;59.938;30.642;2022-07-17T09:06:23;100345.69;;;20.28;46.07
48926;BME280;39838;59.938;30.642;2022-07-17T09:09:00;100347.06;;;20.36;46.23
48926;BME280;39838;59.938;30.642;2022-07-17T09:11:28;100337.94;;;20.43;45.41
48926;BME280;39838;59.938;30.642;2022-07-17T09:13:56;100323.81;;;20.46;45.42
48926;BME280;39838;59.938;30.642;2022-07-17T09:16:24;100338.16;;;20.39;45.04
48926;BME280;39838;59.938;30.642;2022-07-17T09:18:52;100344.50;;;20.35;45.26
48926;BME280;39838;59.938;30.642;2022-07-17T09:21:23;100339.31;;;20.32;45.25
48926;BME280;39838;59.938;30.642;2022-07-17T09:23:58;100330.25;;;20.39;45.56
48926;BME280;39838;59.938;30.642;2022-07-17T09:26:25;100326.38;;;20.48;45.32
48926;BME280;39838;59.938;30.642;2022-07-17T09:28:53;100329.69;;;20.53;45.55
48926;BME280;39838;59.938;30.642;2022-07-17T09:31:29;100325.19;;;20.55;45.12
48926;BME280;39838;59.938;30.642;2022-07-17T09:33:57;100330.59;;;20.52;44.09
48926;BME280;39838;59.938;30.642;2022-07-17T09:36:24;100330.00;;;20.45;43.57
48926;BME280;39838;59.938;30.642;2022-07-17T09:38:53;100338.47;;;20.31;43.33
48926;BME280;39838;59.938;30.642;2022-07-17T09:41:22;100332.56;;;20.26;43.84
48926;BME280;39838;59.938;30.642;2022-07-17T09:43:50;100323.06;;;20.42;43.54
48926;BME280;39838;59.938;30.642;2022-07-17T09:46:19;100328.34;;;20.63;43.34
48926;BME280;39838;59.938;30.642;2022-07-17T09:48:51;100320.09;;;20.70;43.36
48926;BME280;39838;59.938;30.642;2022-07-17T09:51:23;100323.91;;;20.63;43.24
48926;BME280;39838;59.938;30.642;2022-07-17T09:53:52;100319.72;;;20.59;43.38
48926;BME280;39838;59.938;30.642;2022-07-17T09:56:21;100326.47;;;20.65;43.79
48926;BME280;39838;59.938;30.642;2022-07-17T09:58:50;100321.94;;;20.68;43.94
48926;BME280;39838;59.938;30.642;2022-07-17T10:01:18;100324.19;;;20.57;43.78
48926;BME280;39838;59.938;30.642;2022-07-17T10:03:46;100328.03;;;20.50;44.16
48926;BME280;39838;59.938;30.642;2022-07-17T10:06:18;100329.69;;;20.53;44.36
48926;BME280;39838;59.938;30.642;2022-07-17T10:08:46;100312.84;;;20.55;44.45
48926;BME280;39838;59.938;30.642;2022-07-17T10:11:13;100311.97;;;20.75;44.33
48926;BME280;39838;59.938;30.642;2022-07-17T10:13:43;100288.91;;;20.79;43.06
48926;BME280;39838;59.938;30.642;2022-07-17T10:16:11;100304.41;;;21.05;42.58
48926;BME280;39838;59.938;30.642;2022-07-17T10:18:40;100301.97;;;21.19;42.34
48926;BME280;39838;59.938;30.642;2022-07-17T10:21:11;100298.97;;;21.29;42.14
48926;BME280;39838;59.938;30.642;2022-07-17T10:23:42;100305.28;;;21.24;41.13
48926;BME280;39838;59.938;30.642;2022-07-17T10:26:10;100324.22;;;21.15;42.20
48926;BME280;39838;59.938;30.642;2022-07-17T10:28:45;100339.53;;;20.88;43.00
48926;BME280;39838;59.938;30.642;2022-07-17T10:31:22;100336.00;;;20.69;44.07
48926;BME280;39838;59.938;30.642;2022-07-17T10:33:57;100340.34;;;20.70;44.64
48926;BME280;39838;59.938;30.642;2022-07-17T10:36:35;100337.03;;;20.65;44.69
48926;BME280;39838;59.938;30.642;2022-07-17T10:39:14;100353.25;;;20.35;45.39
48926;BME280;39838;59.938;30.642;2022-07-17T10:41:43;100349.06;;;20.09;46.03
48926;BME280;39838;59.938;30.642;2022-07-17T10:44:10;100365.78;;;19.88;46.45
48926;BME280;39838;59.938;30.642;2022-07-17T10:46:37;100357.44;;;19.77;47.01
48926;BME280;39838;59.938;30.642;2022-07-17T10:49:04;100363.16;;;19.66;47.40
48926;BME280;39838;59.938;30.642;2022-07-17T10:51:33;100373.44;;;19.49;48.04
48926;BME280;39838;59.938;30.642;2022-07-17T10:54:01;100373.13;;;19.34;48.34
48926;BME280;39838;59.938;30.642;2022-07-17T10:56:29;100376.91;;;19.27;48.71
48926;BME280;39838;59.938;30.642;2022-07-17T10:59:01;100375.03;;;19.31;48.98
48926;BME280;39838;59.938;30.642;2022-07-17T11:01:28;100369.56;;;19.35;48.60
48926;BME280;39838;59.938;30.642;2022-07-17T11:03:57;100371.47;;;19.32;48.70
48926;BME280;39838;59.938;30.642;2022-07-17T11:06:27;100382.41;;;19.45;48.66
48926;BME280;39838;59.938;30.642;2022-07-17T11:08:58;100374.75;;;19.39;47.99
48926;BME280;39838;59.938;30.642;2022-07-17T11:11:37;100376.84;;;19.29;48.20
48926;BME280;39838;59.938;30.642;2022-07-17T11:14:12;100384.34;;;19.40;48.41
48926;BME280;39838;59.938;30.642;2022-07-17T11:16:45;100380.34;;;19.53;48.29
48926;BME280;39838;59.938;30.642;2022-07-17T11:19:19;100377.44;;;19.60;48.25
48926;BME280;39838;59.938;30.642;2022-07-17T11:21:47;100375.59;;;19.62;48.23
48926;BME280;39838;59.938;30.642;2022-07-17T11:24:15;100380.31;;;19.76;48.11
48926;BME280;39838;59.938;30.642;2022-07-17T11:26:44;100383.53;;;20.05;46.81
48926;BME280;39838;59.938;30.642;2022-07-17T11:29:11;100372.69;;;20.12;46.89
48926;BME280;39838;59.938;30.642;2022-07-17T11:31:40;100369.72;;;20.00;47.23
48926;BME280;39838;59.938;30.642;2022-07-17T11:34:09;100380.47;;;20.15;47.48
48926;BME280;39838;59.938;30.642;2022-07-17T11:36:39;100367.47;;;20.11;47.74
48926;BME280;39838;59.938;30.642;2022-07-17T11:39:08;100354.06;;;19.95;47.90
48926;BME280;39838;59.938;30.642;2022-07-17T11:41:38;100378.59;;;19.97;48.42
48926;BME280;39838;59.938;30.642;2022-07-17T11:44:10;100357.88;;;19.88;48.01
48926;BME280;39838;59.938;30.642;2022-07-17T11:46:38;100372.22;;;19.81;47.63
48926;BME280;39838;59.938;30.642;2022-07-17T11:49:06;100372.22;;;19.81;47.49
48926;BME280;39838;59.938;30.642;2022-07-17T11:51:37;100370.13;;;19.89;47.66
48926;BME280;39838;59.938;30.642;2022-07-17T11:54:06;100343.53;;;19.73;48.07
48926;BME280;39838;59.938;30.642;2022-07-17T11:56:34;100375.84;;;19.78;48.00
48926;BME280;39838;59.938;30.642;2022-07-17T11:59:01;100376.63;;;19.57;48.72
48926;BME280;39838;59.938;30.642;2022-07-17T12:01:38;100344.22;;;19.09;49.63
48926;BME280;39838;59.938;30.642;2022-07-17T12:04:07;100370.91;;;19.24;50.35
48926;BME280;39838;59.938;30.642;2022-07-17T12:06:35;100380.53;;;19.25;50.77
48926;BME280;39838;59.938;30.642;2022-07-17T12:09:03;100371.66;;;19.27;50.50
48926;BME280;39838;59.938;30.642;2022-07-17T12:11:30;100374.22;;;19.29;50.35
48926;BME280;39838;59.938;30.642;2022-07-17T12:14:04;100363.16;;;19.43;50.57
48926;BME280;39838;59.938;30.642;2022-07-17T12:16:35;100371.16;;;19.63;50.00
48926;BME280;39838;59.938;30.642;2022-07-17T12:19:07;100348.69;;;19.76;49.70
48926;BME280;39838;59.938;30.642;2022-07-17T12:21:48;100371.41;;;20.01;49.39
48926;BME280;39838;59.938;30.642;2022-07-17T12:24:20;100355.56;;;20.23;48.97
48926;BME280;39838;59.938;30.642;2022-07-17T12:26:47;100367.06;;;20.62;49.09
48926;BME280;39838;59.938;30.642;2022-07-17T12:29:15;100357.66;;;20.96;49.07
48926;BME280;39838;59.938;30.642;2022-07-17T12:31:44;100361.34;;;21.31;48.89
48926;BME280;39838;59.938;30.642;2022-07-17T12:34:11;100369.41;;;21.47;48.99
48926;BME280;39838;59.938;30.642;2022-07-17T12:36:38;100366.44;;;21.36;49.21
48926;BME280;39838;59.938;30.642;2022-07-17T12:39:06;100366.97;;;21.23;49.50
48926;BME280;39838;59.938;30.642;2022-07-17T12:41:33;100360.69;;;21.07;49.64
48926;BME280;39838;59.938;30.642;2022-07-17T12:44:00;100364.81;;;20.94;50.17
48926;BME280;39838;59.938;30.642;2022-07-17T12:46:27;100365.16;;;20.86;50.33
48926;BME280;39838;59.938;30.642;2022-07-17T12:48:55;100365.16;;;20.86;50.12